Time;durP1;ratioP1;P1;durP2;ratioP2;P2;SDS_P1;SDS_P2;PMS_P1;PMS_P2;Temp;Humidity;BMP_temperature;BMP_pressure;BME280_temperature;BME280_humidity;BME280_pressure;Samples;Min_cycle;Max_cycle;Signal;HPM_P1;HPM_P2
2024/03/10 00:00:52;;;;;;;20.75;14.88;;;;;;;9.23;96.66;99672.59;5113924;28;20051;-69
2024/03/10 00:03:40;;;;;;;26.25;15.48;;;;;;;9.25;96.52;99667.69;5112943;28;20495;-68
2024/03/10 00:06:28;;;;;;;21.05;15.43;;;;;;;9.25;96.58;99670.41;5114114;28;20227;-68
2024/03/10 00:09:16;;;;;;;20.10;15.05;;;;;;;9.21;96.32;99663.94;5111966;28;20040;-68
2024/03/10 00:12:05;;;;;;;21.45;14.98;;;;;;;9.19;96.10;99658.00;5071334;28;20047;-68
2024/03/10 00:14:53;;;;;;;22.20;14.77;;;;;;;9.20;96.11;99659.59;5098714;28;20088;-68
2024/03/10 00:17:42;;;;;;;21.25;13.88;;;;;;;9.21;96.26;99655.78;5113311;28;20105;-68
2024/03/10 00:20:30;;;;;;;17.73;12.45;;;;;;;9.20;95.75;99648.72;5096424;28;20048;-69
2024/03/10 00:23:18;;;;;;;19.83;13.32;;;;;;;9.21;95.96;99649.53;5111887;28;20045;-68
2024/03/10 00:26:07;;;;;;;19.80;14.55;;;;;;;9.22;95.08;99654.69;5110040;28;20043;-68
2024/03/10 00:28:55;;;;;;;18.95;13.75;;;;;;;9.21;94.88;99669.34;5093515;28;20055;-68
2024/03/10 00:31:44;;;;;;;20.52;14.32;;;;;;;9.21;94.79;99677.50;5115309;28;20050;-69
2024/03/10 00:34:34;;;;;;;18.50;13.75;;;;;;;9.20;94.93;99681.34;5101410;28;20483;-69
2024/03/10 00:37:22;;;;;;;18.60;13.35;;;;;;;9.20;94.24;99673.19;5121972;28;20047;-68
2024/03/10 00:40:11;;;;;;;19.60;14.38;;;;;;;9.21;94.23;99672.06;5123084;28;20043;-69
2024/03/10 00:42:59;;;;;;;20.23;13.63;;;;;;;9.17;94.28;99660.97;5098692;28;20127;-69
2024/03/10 00:45:49;;;;;;;19.02;13.45;;;;;;;9.14;93.92;99660.75;5113095;28;20128;-68
2024/03/10 00:48:37;;;;;;;19.05;13.65;;;;;;;9.14;94.02;99655.31;5098699;28;20051;-69
2024/03/10 00:51:25;;;;;;;21.85;15.00;;;;;;;9.09;93.75;99649.91;5111438;28;20051;-69
2024/03/10 00:54:14;;;;;;;17.40;12.27;;;;;;;9.05;94.08;99646.19;5097641;28;20039;-69
2024/03/10 00:57:02;;;;;;;19.17;13.10;;;;;;;9.02;94.97;99652.16;5111864;28;20184;-68
2024/03/10 00:59:51;;;;;;;19.65;13.75;;;;;;;9.00;94.25;99643.50;5111370;28;20282;-68
2024/03/10 01:02:40;;;;;;;19.75;13.90;;;;;;;9.00;94.75;99638.88;5091692;28;20048;-68
2024/03/10 01:05:30;;;;;;;22.02;14.20;;;;;;;9.03;94.13;99645.66;5083556;28;20043;-68
2024/03/10 01:08:18;;;;;;;16.95;12.15;;;;;;;9.05;94.43;99651.63;5112027;28;20476;-69
2024/03/10 01:11:07;;;;;;;19.60;14.05;;;;;;;9.09;93.71;99652.63;5110133;28;20463;-68
2024/03/10 01:13:55;;;;;;;19.50;13.70;;;;;;;9.07;93.33;99652.13;5097182;28;20074;-69
2024/03/10 01:16:43;;;;;;;19.23;13.38;;;;;;;9.06;92.78;99639.63;5108759;28;20040;-68
2024/03/10 01:19:32;;;;;;;19.63;14.15;;;;;;;9.02;93.19;99633.97;5111629;28;20050;-69
2024/03/10 01:22:21;;;;;;;19.75;13.30;;;;;;;9.00;92.87;99627.22;5060452;28;20163;-68
2024/03/10 01:25:09;;;;;;;19.08;12.98;;;;;;;8.97;93.31;99623.13;5105031;28;20040;-68
2024/03/10 01:27:59;;;;;;;17.58;12.68;;;;;;;8.98;93.53;99619.34;5111154;28;20055;-68
2024/03/10 01:30:47;;;;;;;19.33;12.75;;;;;;;8.94;93.63;99621.81;5076961;28;20047;-68
2024/03/10 01:33:36;;;;;;;19.60;12.48;;;;;;;8.96;93.24;99621.53;5090222;28;20059;-68
2024/03/10 01:36:25;;;;;;;17.92;12.38;;;;;;;9.00;93.43;99638.06;5063738;28;20056;-68
2024/03/10 01:39:13;;;;;;;21.42;13.63;;;;;;;8.99;93.79;99629.09;5091178;28;20573;-67
2024/03/10 01:42:01;;;;;;;18.23;13.43;;;;;;;8.99;93.35;99620.94;5095834;28;20098;-68
2024/03/10 01:44:49;;;;;;;19.75;13.07;;;;;;;8.99;93.57;99615.50;5090927;28;20140;-68
2024/03/10 01:47:37;;;;;;;19.40;13.65;;;;;;;9.02;92.84;99619.56;5098238;28;20621;-68
2024/03/10 01:50:25;;;;;;;18.75;13.25;;;;;;;9.00;92.75;99616.34;5110275;28;20054;-68
2024/03/10 01:53:13;;;;;;;19.13;12.45;;;;;;;8.97;93.27;99620.41;5096261;28;20042;-68
2024/03/10 01:56:06;;;;;;;19.02;13.07;;;;;;;8.98;92.74;99613.09;5113422;28;20054;-68
2024/03/10 01:58:55;;;;;;;19.83;13.88;;;;;;;8.98;92.56;99605.75;5081095;28;20067;-65
2024/03/10 02:01:45;;;;;;;19.23;13.57;;;;;;;8.98;92.94;99613.09;5112639;28;20054;-68
2024/03/10 02:04:34;;;;;;;19.55;13.32;;;;;;;8.95;92.42;99604.41;5093315;28;20047;-68
2024/03/10 02:07:22;;;;;;;19.13;13.98;;;;;;;8.93;91.88;99597.66;5102435;28;20294;-69
2024/03/10 02:10:10;;;;;;;18.60;13.65;;;;;;;8.89;92.27;99597.41;5133576;28;20035;-69
2024/03/10 02:12:58;;;;;;;19.70;13.23;;;;;;;8.85;93.18;99593.66;5133503;28;20078;-69
2024/03/10 02:16:03;;;;;;;18.10;12.07;;;;;;;8.77;93.99;99583.41;5132961;28;20070;-69
2024/03/10 02:18:52;;;;;;;18.77;13.23;;;;;;;8.75;93.96;99577.44;5105131;28;20047;-66
2024/03/10 02:21:40;;;;;;;19.73;14.20;;;;;;;8.66;94.58;99580.00;5079785;28;20040;-70
2024/03/10 02:24:38;;;;;;;21.95;13.30;;;;;;;8.70;94.78;99580.22;5082488;28;20564;-69
2024/03/10 02:27:28;;;;;;;18.90;12.82;;;;;;;8.72;95.02;99583.47;5097806;28;20051;-69
2024/03/10 02:30:29;;;;;;;19.27;13.20;;;;;;;8.76;95.05;99583.72;5083233;28;20514;-69
2024/03/10 02:48:51;;;;;;;17.65;12.80;;;;;;;8.63;96.18;99555.31;5115320;28;20051;-68
2024/03/10 02:51:43;;;;;;;21.85;14.32;;;;;;;8.55;96.38;99551.31;5114117;28;20122;-69
2024/03/10 02:54:39;;;;;;;19.10;14.20;;;;;;;8.43;97.47;99543.53;5090654;28;20062;-68
2024/03/10 02:57:31;;;;;;;21.92;14.00;;;;;;;8.45;97.49;99535.13;5080551;28;20278;-68
2024/03/10 03:00:19;;;;;;;17.23;12.85;;;;;;;8.47;97.41;99533.75;5097693;28;20067;-68
2024/03/10 03:03:08;;;;;;;17.77;12.75;;;;;;;8.49;97.40;99526.13;5100232;28;20407;-68
2024/03/10 03:05:57;;;;;;;20.00;14.77;;;;;;;8.45;96.71;99525.06;5093886;28;20051;-68
2024/03/10 03:08:45;;;;;;;20.05;14.40;;;;;;;8.43;96.60;99516.41;5097390;28;20523;-68
2024/03/10 03:11:33;;;;;;;20.02;13.20;;;;;;;8.46;97.41;99515.81;5115112;28;20081;-69
2024/03/10 03:14:26;;;;;;;19.27;12.77;;;;;;;8.46;96.26;99520.44;5087453;28;20179;-69
2024/03/10 03:17:15;;;;;;;21.30;15.00;;;;;;;8.44;96.71;99534.31;5095473;28;20108;-69
2024/03/10 03:20:16;;;;;;;20.67;13.93;;;;;;;8.42;96.68;99541.94;5087853;28;20484;-70
2024/03/10 03:23:04;;;;;;;21.02;13.98;;;;;;;8.47;97.19;99539.16;5102196;28;20047;-69
2024/03/10 03:25:53;;;;;;;21.42;14.80;;;;;;;8.44;96.60;99530.78;5114239;28;20047;-69
2024/03/10 03:28:43;;;;;;;19.77;13.82;;;;;;;8.42;97.70;99525.66;5085849;28;20541;-69
2024/03/10 03:31:31;;;;;;;19.63;14.27;;;;;;;8.35;97.60;99518.91;5099015;28;20047;-69
2024/03/10 03:34:21;;;;;;;17.73;13.13;;;;;;;8.32;97.74;99507.53;5122601;28;20096;-69
2024/03/10 03:37:10;;;;;;;19.67;12.43;;;;;;;8.30;97.65;99517.03;5109263;28;20069;-68
2024/03/10 03:39:59;;;;;;;18.63;14.32;;;;;;;8.34;97.59;99523.50;5111766;28;20050;-68
2024/03/10 03:42:47;;;;;;;19.52;13.82;;;;;;;8.26;98.20;99513.28;5094622;28;20086;-68
2024/03/10 03:45:35;;;;;;;19.58;13.40;;;;;;;8.29;98.24;99499.94;5094844;28;20156;-68
2024/03/10 03:48:23;;;;;;;19.52;13.55;;;;;;;8.31;98.36;99507.78;5079504;28;20130;-68
2024/03/10 03:51:11;;;;;;;20.33;14.18;;;;;;;8.30;98.32;99506.19;5084689;28;20113;-68
2024/03/10 03:53:59;;;;;;;21.65;14.63;;;;;;;8.32;99.30;99510.25;5089765;28;20149;-68
2024/03/10 03:56:49;;;;;;;21.35;14.27;;;;;;;8.32;98.73;99512.13;5112936;28;20047;-68
2024/03/10 03:59:40;;;;;;;20.23;14.48;;;;;;;8.36;98.51;99509.66;5113588;28;20044;-68
2024/03/10 04:02:28;;;;;;;21.02;14.77;;;;;;;8.37;99.00;99509.38;5112474;28;20070;-69
2024/03/10 04:05:17;;;;;;;20.65;13.75;;;;;;;8.36;99.19;99499.59;5085264;28;20058;-69
2024/03/10 04:08:06;;;;;;;20.58;15.07;;;;;;;8.32;99.33;99503.97;5099232;28;20047;-68
2024/03/10 04:10:55;;;;;;;21.30;14.90;;;;;;;8.28;99.94;99497.53;5111592;28;20039;-67
2024/03/10 04:13:43;;;;;;;21.20;14.88;;;;;;;8.19;99.42;99491.09;5077259;28;20506;-69
2024/03/10 04:16:31;;;;;;;19.30;13.30;;;;;;;8.15;100.00;99492.75;5079953;28;20066;-68
2024/03/10 04:19:20;;;;;;;21.70;15.45;;;;;;;8.20;100.00;99492.69;5098527;28;20039;-68
2024/03/10 04:22:09;;;;;;;21.48;15.27;;;;;;;8.06;100.00;99493.38;5111387;28;20083;-69
2024/03/10 04:24:59;;;;;;;19.50;14.10;;;;;;;7.99;100.00;99490.16;5113396;28;20140;-69
2024/03/10 04:27:48;;;;;;;20.30;14.65;;;;;;;7.98;100.00;99499.38;5113583;28;20130;-69
2024/03/10 04:30:36;;;;;;;17.75;14.20;;;;;;;8.01;100.00;99490.69;5112219;28;20139;-69
2024/03/10 04:33:25;;;;;;;19.70;14.88;;;;;;;8.04;100.00;99486.59;5110439;28;20039;-67
2024/03/10 04:36:13;;;;;;;19.23;14.02;;;;;;;8.13;100.00;99489.50;5112482;28;20120;-68
2024/03/10 04:39:02;;;;;;;19.67;14.70;;;;;;;8.11;100.00;99496.03;5096461;28;20517;-68
2024/03/10 04:41:50;;;;;;;20.48;14.82;;;;;;;8.08;100.00;99499.31;5096693;28;20063;-68
2024/03/10 04:44:38;;;;;;;20.30;15.75;;;;;;;8.13;100.00;99494.91;5080537;28;20423;-68
2024/03/10 04:47:26;;;;;;;18.88;13.55;;;;;;;8.10;100.00;99493.59;5111644;28;20047;-68
2024/03/10 04:50:14;;;;;;;23.75;15.57;;;;;;;8.14;100.00;99489.22;5112191;28;20132;-68
2024/03/10 04:53:02;;;;;;;20.00;14.57;;;;;;;8.17;100.00;99485.13;5110450;28;20050;-68
2024/03/10 04:55:50;;;;;;;18.00;13.48;;;;;;;8.13;100.00;99489.50;5097369;28;20119;-68
2024/03/10 04:58:40;;;;;;;22.42;16.33;;;;;;;8.11;100.00;99482.47;5112256;28;20056;-69
2024/03/10 05:01:28;;;;;;;22.60;15.18;;;;;;;8.08;100.00;99488.47;5083319;28;20132;-69
2024/03/10 05:04:18;;;;;;;20.40;15.20;;;;;;;8.04;100.00;99473.84;5095992;28;20077;-69
2024/03/10 05:07:06;;;;;;;19.05;14.60;;;;;;;7.97;100.00;99476.06;5082529;28;20082;-68
2024/03/10 05:09:54;;;;;;;19.52;14.43;;;;;;;7.96;100.00;99471.75;5081641;28;20040;-68
2024/03/10 05:12:43;;;;;;;21.23;15.70;;;;;;;8.06;100.00;99465.44;5096346;28;20040;-68
2024/03/10 05:15:31;;;;;;;22.83;14.98;;;;;;;8.08;100.00;99468.66;5075087;28;20527;-68
2024/03/10 05:18:19;;;;;;;19.10;13.35;;;;;;;8.03;100.00;99469.53;5083995;28;20126;-68
2024/03/10 05:21:07;;;;;;;21.20;15.90;;;;;;;8.05;100.00;99466.50;5111817;28;20419;-68
2024/03/10 05:23:55;;;;;;;25.33;16.25;;;;;;;8.07;100.00;99469.75;5081507;28;20081;-68
2024/03/10 05:26:44;;;;;;;23.30;17.10;;;;;;;8.01;100.00;99469.00;5091692;28;20048;-69
2024/03/10 05:29:32;;;;;;;22.48;16.90;;;;;;;7.99;100.00;99463.03;5090872;28;20071;-68
2024/03/10 05:32:20;;;;;;;22.55;16.85;;;;;;;7.96;100.00;99460.91;5111291;28;20066;-70
2024/03/10 05:35:09;;;;;;;23.15;16.38;;;;;;;7.84;100.00;99468.56;5095858;28;20047;-69
2024/03/10 05:37:58;;;;;;;22.73;16.30;;;;;;;7.85;100.00;99457.44;5082631;28;20507;-69
2024/03/10 05:40:46;;;;;;;20.92;15.40;;;;;;;7.87;100.00;99452.56;5083925;28;20058;-69
2024/03/10 05:43:34;;;;;;;20.73;15.68;;;;;;;7.88;100.00;99456.06;5063968;28;20047;-69
2024/03/10 05:46:22;;;;;;;21.58;15.15;;;;;;;7.92;100.00;99457.13;5090962;28;20147;-69
2024/03/10 05:49:10;;;;;;;21.20;15.90;;;;;;;7.98;100.00;99463.31;5076759;28;20098;-68
2024/03/10 05:51:58;;;;;;;22.80;15.43;;;;;;;7.99;100.00;99465.75;5078792;28;20110;-70
2024/03/10 05:54:47;;;;;;;22.10;16.27;;;;;;;7.95;100.00;99461.19;5083215;28;20078;-69
2024/03/10 05:57:36;;;;;;;22.60;16.52;;;;;;;7.91;100.00;99455.50;5097161;28;20054;-70
2024/03/10 06:00:24;;;;;;;19.35;14.32;;;;;;;7.80;100.00;99460.22;5083034;28;20111;-70
2024/03/10 06:03:12;;;;;;;21.98;14.85;;;;;;;7.80;100.00;99471.06;5066605;28;20039;-70
2024/03/10 06:06:00;;;;;;;21.58;15.70;;;;;;;7.83;100.00;99464.25;5112530;28;20050;-70
2024/03/10 06:08:48;;;;;;;23.00;15.13;;;;;;;7.82;100.00;99468.88;5097830;28;20047;-69
2024/03/10 06:11:37;;;;;;;20.38;15.02;;;;;;;7.85;100.00;99462.06;5097880;28;20052;-69
2024/03/10 06:14:25;;;;;;;20.58;14.00;;;;;;;7.84;100.00;99465.84;5095227;28;20052;-69
2024/03/10 06:17:13;;;;;;;21.52;15.68;;;;;;;7.86;100.00;99464.50;5076320;28;20051;-70
2024/03/10 06:26:17;;;;;;;20.98;15.07;;;;;;;7.78;100.00;99472.44;5094988;28;20096;-70
2024/03/10 06:29:05;;;;;;;21.77;14.82;;;;;;;7.76;100.00;99474.59;5114155;28;20063;-70
2024/03/10 06:31:56;;;;;;;20.15;14.95;;;;;;;7.73;100.00;99473.28;5121410;28;20032;-70
2024/03/10 06:34:46;;;;;;;20.48;13.98;;;;;;;7.75;100.00;99478.44;5133095;28;20047;-69
2024/03/10 06:37:35;;;;;;;20.00;14.90;;;;;;;7.74;100.00;99482.22;5113690;28;20040;-69
2024/03/10 06:40:23;;;;;;;20.88;15.73;;;;;;;7.76;100.00;99485.47;5129308;28;20043;-69
2024/03/10 06:43:14;;;;;;;20.83;15.35;;;;;;;7.74;100.00;99477.59;5113359;28;20043;-69
2024/03/10 06:46:02;;;;;;;19.85;14.23;;;;;;;7.67;100.00;99477.94;5114360;28;20052;-68
2024/03/10 06:48:50;;;;;;;20.85;15.20;;;;;;;7.65;100.00;99473.88;5108207;28;20082;-68
2024/03/10 06:51:39;;;;;;;22.10;15.40;;;;;;;7.60;100.00;99465.75;5117317;28;20188;-68
2024/03/10 06:54:27;;;;;;;22.17;16.05;;;;;;;7.55;100.00;99466.63;5080465;28;20044;-68
2024/03/10 06:57:15;;;;;;;19.70;14.82;;;;;;;7.55;100.00;99466.63;5097834;28;20055;-69
2024/03/10 07:00:12;;;;;;;19.05;13.73;;;;;;;7.60;100.00;99466.59;5099163;28;20062;-68
2024/03/10 07:03:01;;;;;;;20.95;13.90;;;;;;;7.58;100.00;99457.94;5085964;28;20043;-70
2024/03/10 07:05:51;;;;;;;21.05;15.60;;;;;;;7.59;100.00;99458.75;5087048;28;20134;-69
2024/03/10 07:08:39;;;;;;;21.92;15.38;;;;;;;7.62;100.00;99467.09;5114627;28;20093;-69
2024/03/10 07:11:27;;;;;;;20.77;15.02;;;;;;;7.62;100.00;99471.72;5100735;28;20089;-69
2024/03/10 07:14:16;;;;;;;20.38;14.43;;;;;;;7.62;100.00;99479.84;5052012;28;20043;-71
2024/03/10 07:17:04;;;;;;;21.50;15.40;;;;;;;7.56;100.00;99484.50;5086791;28;20039;-70
2024/03/10 07:19:52;;;;;;;20.65;15.13;;;;;;;7.61;100.00;99479.03;5099025;28;20051;-70
2024/03/10 07:22:41;;;;;;;23.50;14.95;;;;;;;7.65;100.00;99482.03;5085631;28;20590;-71
2024/03/10 07:25:30;;;;;;;20.15;15.00;;;;;;;7.65;100.00;99490.97;5114130;28;20455;-70
2024/03/10 07:28:24;;;;;;;20.92;15.25;;;;;;;7.63;100.00;99492.31;5088930;28;20044;-71
2024/03/10 07:31:12;;;;;;;19.42;15.48;;;;;;;7.61;100.00;99498.03;5097771;28;20357;-71
2024/03/10 07:34:00;;;;;;;22.75;16.25;;;;;;;7.59;100.00;99492.06;5113441;28;20130;-70
2024/03/10 07:36:49;;;;;;;20.60;15.73;;;;;;;7.62;100.00;99498.81;5113696;28;20169;-69
2024/03/10 07:39:37;;;;;;;19.75;14.77;;;;;;;7.66;100.00;99497.97;5071100;28;20087;-70
2024/03/10 07:42:26;;;;;;;21.23;15.45;;;;;;;7.73;100.00;99491.44;5086212;28;20051;-70
2024/03/10 07:45:18;;;;;;;20.65;13.98;;;;;;;7.80;100.00;99503.59;5113724;28;20093;-69
2024/03/10 07:48:07;;;;;;;22.30;15.43;;;;;;;7.81;100.00;99504.41;5111271;28;20039;-70
2024/03/10 07:50:56;;;;;;;20.17;14.30;;;;;;;7.83;100.00;99500.31;5099667;28;20047;-70
2024/03/10 07:53:44;;;;;;;19.63;14.45;;;;;;;7.88;100.00;99513.03;5099162;28;20043;-70
2024/03/10 07:56:33;;;;;;;23.67;14.73;;;;;;;7.91;100.00;99509.75;5097826;28;20538;-70
2024/03/10 07:59:21;;;;;;;20.80;13.88;;;;;;;7.96;100.00;99512.44;5084432;28;20043;-71
2024/03/10 08:02:10;;;;;;;22.08;14.27;;;;;;;7.99;100.00;99509.16;5097122;28;20073;-71
2024/03/10 08:04:58;;;;;;;18.67;13.98;;;;;;;8.03;100.00;99496.66;5086107;28;20406;-69
2024/03/10 08:07:48;;;;;;;19.17;14.30;;;;;;;8.07;100.00;99500.41;5098911;28;20051;-70
2024/03/10 08:10:38;;;;;;;18.75;14.00;;;;;;;8.04;100.00;99498.25;5098133;28;20048;-70
2024/03/10 08:13:27;;;;;;;19.77;13.38;;;;;;;8.09;99.99;99500.94;5086527;28;20040;-70
2024/03/10 08:16:15;;;;;;;18.45;13.15;;;;;;;8.10;99.46;99496.31;5085956;28;20113;-69
2024/03/10 08:19:03;;;;;;;20.17;14.27;;;;;;;8.05;99.74;99494.44;5086149;28;20121;-69
2024/03/10 08:21:51;;;;;;;22.40;14.68;;;;;;;8.10;100.00;99493.59;5051408;28;20044;-69
2024/03/10 08:24:40;;;;;;;19.90;14.15;;;;;;;8.11;100.00;99485.19;5091786;28;20043;-69
2024/03/10 08:27:28;;;;;;;20.02;14.63;;;;;;;8.17;100.00;99490.56;5098844;28;20149;-69
2024/03/10 08:30:16;;;;;;;19.70;14.05;;;;;;;8.19;99.64;99488.38;5085107;28;20043;-69
2024/03/10 08:33:06;;;;;;;19.23;13.68;;;;;;;8.20;99.75;99489.97;5113188;28;20040;-69
2024/03/10 08:35:54;;;;;;;17.83;13.32;;;;;;;8.19;99.73;99488.38;5085399;28;20043;-70
2024/03/10 08:38:42;;;;;;;19.75;14.75;;;;;;;8.20;100.00;99479.13;5097787;28;20042;-69
2024/03/10 08:41:30;;;;;;;21.45;13.75;;;;;;;8.20;99.71;99473.69;5110234;28;20039;-69
2024/03/10 08:44:18;;;;;;;20.90;14.95;;;;;;;8.20;99.38;99474.53;5077073;28;20063;-70
2024/03/10 08:47:07;;;;;;;19.02;13.40;;;;;;;8.23;99.08;99473.16;5092180;28;20423;-71
2024/03/10 08:49:55;;;;;;;18.70;13.68;;;;;;;8.25;99.54;99466.34;5091422;28;20500;-70
2024/03/10 08:52:44;;;;;;;18.95;14.63;;;;;;;8.27;99.74;99472.28;5095395;28;20511;-70
2024/03/10 08:55:32;;;;;;;19.30;14.10;;;;;;;8.33;98.08;99470.34;5064100;28;20039;-70
2024/03/10 08:58:20;;;;;;;20.95;14.77;;;;;;;8.31;98.79;99469.81;5078764;28;20146;-71
2024/03/10 09:01:09;;;;;;;19.83;14.27;;;;;;;8.37;98.72;99468.66;5077591;28;20169;-70
2024/03/10 09:04:02;;;;;;;17.45;12.50;;;;;;;8.43;98.73;99472.16;5098404;28;20111;-69
2024/03/10 09:06:50;;;;;;;17.55;14.02;;;;;;;8.49;97.93;99471.84;5098241;28;20054;-70
2024/03/10 09:09:38;;;;;;;19.30;14.15;;;;;;;8.56;99.11;99473.38;5099688;28;20047;-70
2024/03/10 09:12:27;;;;;;;17.77;12.77;;;;;;;8.61;98.52;99467.91;5097469;28;20487;-69
2024/03/10 09:15:16;;;;;;;19.60;13.75;;;;;;;8.67;98.80;99483.03;5107880;28;20044;-71
2024/03/10 09:18:04;;;;;;;19.60;13.55;;;;;;;8.70;98.26;99474.31;5092298;28;20109;-69
2024/03/10 09:20:52;;;;;;;18.75;13.63;;;;;;;8.74;98.73;99480.78;5086610;28;20412;-69
2024/03/10 09:23:40;;;;;;;21.13;13.32;;;;;;;8.79;98.53;99490.78;5112696;28;20122;-70
2024/03/10 09:26:28;;;;;;;18.60;12.90;;;;;;;8.83;98.70;99498.06;5077669;28;20055;-70
2024/03/10 09:29:21;;;;;;;19.65;14.73;;;;;;;8.84;98.72;99488.81;5112393;28;20410;-70
2024/03/10 09:32:15;;;;;;;18.33;13.65;;;;;;;8.88;98.93;99500.72;5069756;28;20043;-70
2024/03/10 09:35:05;;;;;;;19.48;14.93;;;;;;;8.92;99.20;99493.63;5112422;28;20044;-68
2024/03/10 09:37:53;;;;;;;19.63;14.23;;;;;;;8.95;98.13;99486.81;5085781;28;20042;-69
2024/03/10 09:40:42;;;;;;;19.10;15.00;;;;;;;9.00;98.93;99486.75;5103807;28;20109;-69
2024/03/10 09:43:30;;;;;;;20.13;14.82;;;;;;;9.04;98.23;99476.09;5110456;28;20048;-69
2024/03/10 09:46:18;;;;;;;20.80;13.77;;;;;;;9.08;98.64;99477.94;5088261;28;20052;-71
2024/03/10 09:49:07;;;;;;;19.83;14.98;;;;;;;9.12;98.75;99465.41;5091224;28;20496;-71
2024/03/10 09:51:56;;;;;;;19.23;13.90;;;;;;;9.18;99.00;99455.25;5085070;28;20491;-69
2024/03/10 09:54:45;;;;;;;19.30;13.82;;;;;;;9.22;99.54;99445.44;5098258;28;20050;-70
2024/03/10 09:57:34;;;;;;;22.40;14.88;;;;;;;9.31;99.99;99442.88;5095792;28;20411;-70
2024/03/10 10:00:28;;;;;;;22.60;15.43;;;;;;;9.38;99.63;99430.53;5083267;28;20085;-71
2024/03/10 10:03:18;;;;;;;20.60;14.30;;;;;;;9.45;99.02;99432.06;5096718;28;20547;-69
2024/03/10 10:06:08;;;;;;;18.50;13.52;;;;;;;9.47;98.26;99433.38;5082163;28;20050;-69
2024/03/10 10:08:58;;;;;;;20.50;14.45;;;;;;;9.51;99.15;99420.81;5076896;28;20055;-69
2024/03/10 10:11:47;;;;;;;20.17;14.43;;;;;;;9.58;98.61;99420.44;5069465;28;20039;-69
2024/03/10 10:14:35;;;;;;;19.35;14.35;;;;;;;9.58;97.71;99415.81;5083397;28;20134;-70
2024/03/10 10:17:25;;;;;;;17.83;12.88;;;;;;;9.58;97.62;99423.97;5083877;28;20112;-70
2024/03/10 10:20:13;;;;;;;21.30;15.65;;;;;;;9.63;98.14;99433.97;5083238;28;20050;-69
2024/03/10 10:23:06;;;;;;;22.52;15.80;;;;;;;9.67;97.98;99440.44;5083486;28;20503;-70
2024/03/10 10:26:09;;;;;;;18.10;13.48;;;;;;;9.71;97.72;99441.44;5084007;28;20043;-70
2024/03/10 10:29:12;;;;;;;17.20;12.82;;;;;;;9.80;97.88;99449.72;5098128;28;20105;-70
2024/03/10 10:32:06;;;;;;;19.58;13.63;;;;;;;9.88;96.04;99453.69;5082056;28;20063;-70
2024/03/10 10:34:56;;;;;;;19.45;14.40;;;;;;;9.94;96.50;99457.94;5083975;28;20039;-70
2024/03/10 10:37:46;;;;;;;19.33;13.68;;;;;;;10.02;96.85;99465.44;5078114;28;20499;-71
2024/03/10 10:40:36;;;;;;;19.92;14.98;;;;;;;10.10;95.70;99475.66;5114285;28;20423;-69
2024/03/10 10:43:24;;;;;;;22.10;13.80;;;;;;;10.17;94.55;99465.19;5051666;28;20044;-70
2024/03/10 10:46:14;;;;;;;17.75;12.48;;;;;;;10.22;95.01;99470.53;5085948;28;20462;-70
2024/03/10 10:49:05;;;;;;;18.67;13.95;;;;;;;10.24;95.26;99475.66;5077489;28;20036;-71
2024/03/10 10:51:56;;;;;;;20.27;13.18;;;;;;;10.24;94.57;99481.91;5087927;28;20039;-71
2024/03/10 10:54:45;;;;;;;18.67;14.25;;;;;;;10.26;93.71;99469.94;5111744;28;20034;-70
2024/03/10 10:57:33;;;;;;;20.42;13.77;;;;;;;10.32;92.45;99452.41;5076092;28;20121;-71
2024/03/10 11:00:29;;;;;;;17.55;12.88;;;;;;;10.35;92.48;99454.56;5094281;28;20047;-70
2024/03/10 11:03:32;;;;;;;18.40;13.60;;;;;;;10.34;92.40;99463.81;5106102;28;20134;-70
2024/03/10 11:06:25;;;;;;;20.20;14.13;;;;;;;10.34;93.34;99467.38;5099936;28;20060;-71
2024/03/10 11:09:16;;;;;;;19.15;13.48;;;;;;;10.36;92.27;99467.06;5114940;28;20130;-71
2024/03/10 11:12:21;;;;;;;18.02;13.88;;;;;;;10.36;92.34;99465.13;5086933;28;20048;-70
2024/03/10 11:15:10;;;;;;;20.02;14.88;;;;;;;10.43;91.27;99468.28;5081136;28;20055;-69
2024/03/10 11:18:19;;;;;;;17.38;12.48;;;;;;;10.48;90.66;99475.53;5083186;28;20056;-69
2024/03/10 11:21:18;;;;;;;20.77;14.35;;;;;;;10.49;91.21;99466.28;5086010;28;20126;-70
2024/03/10 11:24:14;;;;;;;18.67;13.52;;;;;;;10.51;91.26;99480.41;5100667;28;20044;-70
2024/03/10 11:27:18;;;;;;;19.80;13.65;;;;;;;10.54;91.73;99460.72;5086325;28;20134;-70
2024/03/10 11:30:31;;;;;;;19.90;13.55;;;;;;;10.56;89.78;99476.75;5098302;28;20088;-70
2024/03/10 11:33:21;;;;;;;18.08;11.73;;;;;;;10.57;90.33;99479.19;5114067;28;20051;-69
2024/03/10 11:36:09;;;;;;;18.10;13.75;;;;;;;10.60;90.27;99473.13;5085811;28;20052;-69
2024/03/10 11:39:01;;;;;;;18.83;14.38;;;;;;;10.69;89.77;99462.34;5084413;28;20043;-69
2024/03/10 11:41:50;;;;;;;19.92;14.73;;;;;;;10.74;89.32;99488.69;5085509;28;20040;-69
2024/03/10 11:44:40;;;;;;;20.33;15.65;;;;;;;10.77;89.16;99471.72;5113194;28;20063;-69
2024/03/10 11:47:31;;;;;;;18.20;15.43;;;;;;;10.85;88.17;99454.69;5065360;28;20040;-69
2024/03/10 11:50:19;;;;;;;19.63;15.05;;;;;;;10.92;87.31;99441.47;5109016;28;20071;-69
2024/03/10 11:53:07;;;;;;;19.75;14.98;;;;;;;10.97;87.44;99449.53;5101986;28;20169;-69
2024/03/10 11:55:57;;;;;;;22.25;15.52;;;;;;;11.03;87.91;99445.56;5079746;28;20101;-70
2024/03/10 11:58:46;;;;;;;20.90;15.93;;;;;;;11.11;85.86;99443.25;5063987;28;20046;-70
2024/03/10 12:01:34;;;;;;;24.27;15.45;;;;;;;11.05;86.44;99446.09;5089972;28;20263;-69
2024/03/10 12:04:22;;;;;;;19.13;15.10;;;;;;;11.04;87.00;99443.66;5082338;28;20050;-69
2024/03/10 12:07:11;;;;;;;21.45;15.45;;;;;;;11.07;86.98;99427.50;5095479;28;20047;-70
2024/03/10 12:09:59;;;;;;;21.13;14.68;;;;;;;11.13;87.54;99419.22;5093182;28;20051;-70
2024/03/10 12:12:51;;;;;;;19.88;14.25;;;;;;;11.15;87.94;99436.09;5083281;28;20287;-70
2024/03/10 12:15:39;;;;;;;19.45;14.63;;;;;;;11.18;88.95;99440.91;5075389;28;20543;-69
2024/03/10 12:18:30;;;;;;;19.55;14.02;;;;;;;11.22;89.68;99434.53;5093691;28;20255;-69
2024/03/10 12:21:18;;;;;;;21.08;15.20;;;;;;;11.24;87.88;99442.44;5098506;28;20496;-71
2024/03/10 12:24:07;;;;;;;21.20;15.57;;;;;;;11.26;87.38;99440.22;5099681;28;20051;-70
2024/03/10 12:26:55;;;;;;;22.42;15.30;;;;;;;11.29;87.27;99439.59;5099225;28;20043;-70
2024/03/10 12:29:48;;;;;;;25.58;17.02;;;;;;;11.32;88.00;99438.97;5085290;28;20058;-69
2024/03/10 12:32:44;;;;;;;20.60;15.27;;;;;;;11.33;87.51;99434.31;5098381;28;20412;-70
2024/03/10 12:35:32;;;;;;;25.85;15.95;;;;;;;11.36;88.03;99429.06;5071361;28;20088;-70
2024/03/10 12:38:21;;;;;;;20.08;14.88;;;;;;;11.47;88.33;99425.00;5091201;28;20129;-69
2024/03/10 12:41:20;;;;;;;22.38;17.33;;;;;;;11.54;88.06;99413.63;5116505;28;20044;-71
2024/03/10 12:44:08;;;;;;;21.90;15.63;;;;;;;11.58;86.73;99405.66;5102570;28;20067;-70
2024/03/10 12:46:56;;;;;;;22.35;16.63;;;;;;;11.61;88.36;99402.31;5095388;28;20051;-69
2024/03/10 12:49:45;;;;;;;22.63;16.27;;;;;;;11.64;88.37;99407.13;5112465;28;20438;-69
2024/03/10 12:52:33;;;;;;;23.45;16.48;;;;;;;11.69;84.72;99399.66;5086037;28;20130;-70
2024/03/10 12:55:23;;;;;;;21.75;16.55;;;;;;;11.75;84.00;99392.13;5100123;28;20098;-70
2024/03/10 12:58:13;;;;;;;24.00;16.00;;;;;;;11.71;84.48;99391.13;5114506;28;20059;-69
2024/03/10 13:01:02;;;;;;;20.48;15.80;;;;;;;11.67;84.41;99392.88;5098543;28;20411;-69
2024/03/10 13:03:50;;;;;;;21.65;16.75;;;;;;;11.68;84.98;99398.03;5085437;28;20082;-70
2024/03/10 13:06:38;;;;;;;21.73;16.20;;;;;;;11.74;85.50;99390.53;5113778;28;20054;-70
2024/03/10 13:09:27;;;;;;;24.33;17.27;;;;;;;11.76;84.86;99384.75;5098224;28;20050;-70
2024/03/10 13:12:15;;;;;;;21.05;16.48;;;;;;;11.74;85.78;99385.06;5098285;28;20043;-70
2024/03/10 13:15:05;;;;;;;23.60;17.40;;;;;;;11.82;88.66;99399.88;5097443;28;20050;-69
2024/03/10 13:17:53;;;;;;;23.63;18.90;;;;;;;11.84;89.87;99403.13;5071278;28;20047;-71
2024/03/10 13:20:43;;;;;;;24.58;18.75;;;;;;;11.80;90.00;99400.19;5084654;28;20047;-69
2024/03/10 13:23:32;;;;;;;24.17;17.92;;;;;;;11.85;90.44;99400.06;5084795;28;20116;-69
2024/03/10 13:26:21;;;;;;;24.15;18.45;;;;;;;11.92;89.75;99396.94;5085043;28;20165;-70